Home > Products > Valid Products > TAF

000
FTUS46 KEKA 211724
TAFUKI
TAF
KUKI 211724Z 2118/2218 VRB03KT P6SM OVC010
     FM212000 16004KT P6SM OVC020
     FM220000 17004KT P6SM OVC030
     FM220300 16008KT 6SM -RA OVC020
     FM221000 15005KT 4SM -RA BR OVC010=



000
FTUS46 KEKA 211724
TAFCEC
TAF
KCEC 211724Z 2118/2218 16015G20KT P6SM -RA FEW025 FEW050 BKN060
     FM212000 16020G28KT 6SM -RA BR OVC020
     FM220200 17025G35KT 5SM RA BR OVC015
     FM221000 20015G25KT P6SM -SHRA BKN020=



000
FTUS46 KEKA 211724
TAFACV
TAF
KACV 211724Z 2118/2218 14012KT P6SM -RA FEW050 BKN060
     FM212100 16012KT 5SM -RA BR OVC030
     FM220300 18015G25KT 3SM RA BR OVC020
     FM220600 21020G28KT 5SM RA BR OVC020
     FM221000 20012KT P6SM -SHRA BKN020
     FM221300 29006KT 5SM -RA OVC050=



000
FTUS46 KEKA 211153
TAFCEC
TAF
KCEC 211153Z 2112/2212 16010KT P6SM FEW045 BKN060
     FM211400 17012KT P6SM -RA BKN020 OVC060
     FM211800 16020G28KT 6SM -RA BR OVC020
     FM220200 17025G35KT 5SM RA BR OVC015
     FM221000 20015KT P6SM -SHRA BKN020=



000
FTUS46 KEKA 211153
TAFACV
TAF
KACV 211153Z 2112/2212 13004KT P6SM BKN160
     FM212200 16011KT P6SM -RA OVC030
     FM220400 18018G28KT 6SM RA BKN020
     FM221000 20012KT P6SM -SHRA BKN020=



000
FTUS46 KEKA 211153
TAFUKI
TAF
KUKI 211153Z 2112/2212 00000KT P6SM SCT007 OVC014
     FM212000 24003KT P6SM SCT030 BKN100
     FM220200 18008KT 6SM -RA OVC030
     FM221000 15005KT P6SM -RA OVC015=



000
FTUS46 KEKA 211005 AAB
TAFCEC
TAF AMD
KCEC 211005Z 2110/2206 14007KT P6SM SCT025
      TEMPO 2110/2114 BKN020
     FM211400 16010KT P6SM VCSH BKN025 OVC080
     FM211600 17012KT P6SM -RA BKN020 OVC060
     FM211800 16020G28KT 4SM -RA BR OVC020
     FM212300 17022G30KT 2SM RA BR OVC015=



000
FTUS46 KEKA 210947 AAA
TAFCEC
TAF AMD
KCEC 210947Z 2110/2206 14007KT P6SM BKN027
     FM211400 16010KT P6SM VCSH BKN025 OVC080
     FM211600 17012KT P6SM -RA BKN020 OVC060
     FM211800 16020G28KT 4SM -RA BR OVC020
     FM212300 17022G30KT 2SM RA BR OVC015=



000
FTUS46 KEKA 210754 AAA
TAFUKI
TAF AMD
KUKI 210754Z 2108/2206 00000KT P6SM SCT006 OVC015
     FM211600 VRB03KT P6SM BKN020 OVC120
     FM212000 14003KT P6SM VCSH SCT030 BKN100
     FM212300 20004KT 6SM -RA BKN020 OVC080=



000
FTUS46 KEKA 210549
TAFACV
TAF
KACV 210549Z 2106/2206 12005KT P6SM BKN050 OVC250
     FM211000 12004KT P6SM SCT040 OVC250
     FM211400 14008KT P6SM SCT025 BKN120 OVC200
     FM211600 14008KT P6SM VCSH BKN020 OVC080
     FM211800 16010KT 6SM -RA OVC020
     FM212300 16012KT 4SM -RA BR OVC015
     FM220200 17015G22KT 2SM RA BR OVC015=



000
FTUS46 KEKA 210549
TAFUKI
TAF
KUKI 210549Z 2106/2206 00000KT 6SM BR BKN010 OVC025
     FM211600 VRB03KT P6SM BKN020 OVC120
     FM212000 14003KT P6SM VCSH SCT030 BKN100
     FM212300 20004KT 6SM -RA BKN020 OVC080=



000
FTUS46 KEKA 210549
TAFCEC
TAF
KCEC 210549Z 2106/2206 14006KT P6SM SCT025 BKN250
      TEMPO 2106/2110 BKN025
     FM211000 15006KT P6SM SCT040 OVC250
     FM211400 16010KT P6SM VCSH BKN025 OVC080
     FM211600 17012KT P6SM -RA BKN020 OVC060
     FM211800 16020G28KT 4SM -RA BR OVC020
     FM212300 17022G30KT 2SM RA BR OVC015=



000
FTUS46 KEKA 210318 AAA
TAFUKI
TAF AMD
KUKI 210318Z 2103/2124 00000KT P6SM -RA BKN025 OVC040
     FM210500 00000KT 4SM BR OVC020
     FM211900 33005KT P6SM OVC050=



000
FTUS46 KEKA 202333
TAFUKI
TAF
KUKI 202333Z 2100/2124 00000KT P6SM -RA BKN040 OVC050
      TEMPO 2100/2104 5SM -RA BR BKN015 BKN020 OVC025
     FM210400 00000KT 4SM BR OVC020
     FM211900 33005KT P6SM OVC050=



000
FTUS46 KEKA 202333
TAFCEC
TAF
KCEC 202333Z 2100/2124 16008KT P6SM VCSH BKN060
     FM210600 14005KT 6SM BR SCT015 BKN035
     FM211000 15006KT P6SM OVC050=



000
FTUS46 KEKA 202333
TAFACV
TAF
KACV 202333Z 2100/2124 13006KT P6SM OVC060
     FM210200 13004KT P6SM BKN035=



000
FTUS46 KEKA 202300 CCB
TAFACV
TAF COR
KACV 202300Z 2022/2118 13003KT P6SM SCT050 BKN060
     FM210200 13003KT P6SM BKN035=



000
FTUS46 KEKA 202202 CCB
TAFUKI
TAF COR
KUKI 202202Z 2018/2118 00000KT P6SM -RA BKN040 OVC050
      TEMPO 2022/2024 3SM -RA BR BKN015 BKN030
     FM210000 00000KT P6SM VCSH OVC050=



000
FTUS46 KEKA 202201 CCA
TAFCEC
TAF COR
KCEC 202201Z 2018/2118 16008KT P6SM VCSH BKN050
     FM210400 16004KT 6SM BR SCT015 BKN035
     FM211000 16006KT P6SM OVC050=



000
FTUS46 KEKA 202200 AAA
TAFACV
TAF AMD
KACV 202200Z 2022/2118 13008KT P6SM -RA BKN060 OVC080
      TEMPO 2022/2024 3SM RA BR BKN050
     FM210000 15003KT P6SM BKN035
     FM210200 13003KT P6SM BKN035=



000
FTUS46 KEKA 202107 CCA
TAFUKI
TAF COR
KUKI 202107Z 2018/2118 00000KT P6SM -RA BKN040 OVC050
      TEMPO 2021/2023 3SM -RA BR FEW025 BKN030 BKN035
     FM202300 13003KT P6SM -RA OVC025
     FM210000 00000KT P6SM VCSH OVC050=



000
FTUS46 KEKA 202028 CCA
TAFACV
TAF COR
KACV 202028Z 2018/2118 13010KT P6SM -RA BKN060 OVC070
     FM202300 17005KT P6SM OVC050
     FM210000 15003KT P6SM BKN035
     FM210200 13003KT P6SM BKN035=



000
FTUS46 KEKA 201724
TAFCEC
TAF
KCEC 201724Z 2018/2118 14008KT P6SM -RA BKN060 OVC070
     FM202200 16008KT P6SM VCSH BKN035
     FM210400 16004KT 6SM BR SCT015 BKN035
     FM211000 16006KT P6SM OVC050=



000
FTUS46 KEKA 201724
TAFACV
TAF
KACV 201724Z 2018/2118 13005KT P6SM -RA SCT050 BKN060 OVC070
     FM202000 17005KT P6SM OVC050
     FM210000 15003KT P6SM BKN035
     FM210200 13003KT P6SM BKN035=



000
FTUS46 KEKA 201724
TAFUKI
TAF
KUKI 201724Z 2018/2118 00000KT P6SM -RA BKN040 OVC050
      TEMPO 2018/2020 3SM -RA BR FEW025 BKN030 BKN035
     FM202100 13003KT P6SM -RA OVC025
     FM210000 00000KT P6SM VCSH OVC050=



000
FTUS46 KEKA 201703 CCB
TAFUKI
TAF COR
KUKI 201703Z 2015/2112 00000KT P6SM -RA BKN040 OVC050
      TEMPO 2017/2019 3SM BR BKN035
     FM201900 17003KT P6SM -RA OVC025
     FM210400 00000KT P6SM VCSH OVC070=



000
FTUS46 KEKA 201641 AAA
TAFCEC
TAF AMD
KCEC 201641Z 2017/2112 15010KT P6SM -RA FEW015 OVC060
     FM202200 17008KT P6SM VCSH BKN035
     FM210400 16004KT 6SM BR SCT015 BKN035
     FM211000 16006KT P6SM OVC050=



000
FTUS46 KEKA 201639 AAA
TAFACV
TAF AMD
KACV 201639Z 2017/2112 15006KT P6SM -RA FEW040 OVC060
     FM201800 17005KT P6SM -RA OVC035
     FM210000 15003KT P6SM VCSH BKN035
     FM210200 13004KT P6SM BKN035=



000
FTUS46 KEKA 201521 CCA
TAFUKI
TAF COR
KUKI 201521Z 2015/2112 00000KT P6SM -RA BKN040 OVC050
      TEMPO 2015/2018 5SM BR SCT020
     FM201800 17003KT P6SM -RA OVC025
     FM210400 00000KT P6SM VCSH OVC070=



000
FTUS46 KEKA 201519 AAB
TAFUKI
TAF AMD
KUKI 201519Z 2015/2112 00000KT P6SM -RA BKN015 OVC040
      TEMPO 2015/2018 5SM BR BKN020
     FM201800 17003KT P6SM -RA OVC025
     FM210400 00000KT P6SM VCSH OVC070=



000
FTUS46 KEKA 201511 AAA
TAFUKI
TAF AMD
KUKI 201511Z 2015/2112 00000KT P6SM BKN015 OVC040
      TEMPO 2015/2018 5SM BR BKN020
     FM201800 17003KT P6SM -RA OVC025
     FM210400 00000KT P6SM VCSH OVC070=



000
FTUS46 KEKA 201120
TAFUKI
TAF
KUKI 201120Z 2012/2112 00000KT 6SM BR OVC004
      TEMPO 2012/2014 3SM BR BKN010
     FM201400 15003KT 5SM BR OVC005
     FM201900 17003KT P6SM -RA OVC025
     FM210400 00000KT P6SM VCSH OVC070=



000
FTUS46 KEKA 201120
TAFACV
TAF
KACV 201120Z 2012/2112 11006KT P6SM SKC
     FM201500 15007KT 6SM -RA OVC025
     FM210000 15004KT P6SM VCSH BKN035
     FM210200 11004KT P6SM BKN035=



000
FTUS46 KEKA 201120
TAFCEC
TAF
KCEC 201120Z 2012/2112 13006KT P6SM SCT100
     FM201300 16012KT 6SM -RA OVC025
     FM202200 17008KT P6SM VCSH BKN035
     FM210400 16004KT 6SM BR SCT015 BKN035
     FM211000 16006KT P6SM OVC050=



000
FTUS46 KEKA 201116 AAD
TAFCEC
TAF AMD
KCEC 201116Z 2011/2106 18013KT P6SM BKN100 OVC120
     FM201300 16012KT 6SM -RA OVC025
     FM202200 17008KT P6SM VCSH BKN035
     FM210200 16004KT 6SM BR SCT015 BKN035=



000
FTUS46 KEKA 201054 AAC
TAFCEC
TAF AMD
KCEC 201054Z 2011/2106 13008KT P6SM FEW022 BKN110
     FM201300 16012KT 6SM -RA OVC025
     FM202200 17008KT P6SM VCSH BKN035
     FM210200 16004KT 6SM BR SCT015 BKN035=



000
FTUS46 KEKA 201008 AAA
TAFUKI
TAF AMD
KUKI 201008Z 2010/2106 VRB03KT 5SM BR BKN020
      TEMPO 2010/2014 3SM BR BKN010
     FM201400 15003KT 5SM BR OVC005
     FM201900 17003KT P6SM -RA OVC025
     FM210400 00000KT P6SM VCSH BKN035=



000
FTUS46 KEKA 200939 AAA
TAFACV
TAF AMD
KACV 200939Z 2010/2106 12008KT P6SM SKC
     FM201500 15007KT 6SM -RA OVC025
     FM210000 15004KT P6SM VCSH BKN035
     FM210200 11004KT P6SM BKN035=



000
FTUS46 KEKA 200939 AAA
TAFACV
TAF AMD
KACV 200939Z 2010/2106 12008KT P6SM SKC
     FM201500 15007KT 6SM -RA OVC025
     FM210000 15004KT P6SM VCSH BKN035
     FM210200 11004KT P6SM BKN035=



000
FTUS46 KEKA 200916 AAB
TAFCEC
TAF AMD
KCEC 200916Z 2009/2106 15015G20KT P6SM FEW022 BKN110
     FM201300 16012KT 6SM -RA OVC025
     FM202200 17008KT P6SM VCSH BKN035
     FM210200 16004KT 6SM BR SCT015 BKN035=



000
FTUS46 KEKA 200759 AAA
TAFCEC
TAF AMD
KCEC 200759Z 2008/2106 16011KT P6SM SCT026 BKN035 OVC040
     FM201000 17010KT P6SM -DZ BKN025 OVC050
     FM201300 16012KT 6SM -RA OVC025
     FM202200 17008KT P6SM VCSH BKN035
     FM210200 16004KT 6SM BR SCT015 BKN035=



000
FTUS46 KEKA 200559
TAFUKI
TAF
KUKI 200559Z 2006/2106 00000KT 5SM BR VCSH OVC006
     FM201400 15003KT 5SM BR OVC005
     FM201900 17003KT P6SM -RA OVC025
     FM210400 00000KT P6SM VCSH BKN035=



000
FTUS46 KEKA 200559
TAFCEC
TAF
KCEC 200559Z 2006/2106 19008KT 6SM BR BKN015 OVC025
     FM201000 17010KT P6SM -DZ BKN025 OVC050
     FM201300 16012KT 6SM -RA OVC025
     FM202200 17008KT P6SM VCSH BKN035
     FM210200 16004KT 6SM BR SCT015 BKN035=



000
FTUS46 KEKA 200559
TAFACV
TAF
KACV 200559Z 2006/2106 16005KT 6SM BR SCT015 BKN040 OVC060
     FM201200 15007KT 4SM -DZ BR BKN025 OVC050
     FM201500 15007KT 6SM -RA OVC025
     FM210000 15004KT P6SM VCSH BKN035
     FM210200 11004KT P6SM BKN035=



000
FTUS46 KEKA 200429 AAA
TAFUKI
TAF AMD
KUKI 200429Z 2004/2024 00000KT 6SM BR VCSH OVC008
     FM200600 00000KT 5SM BR BKN012
     FM201400 16004KT 6SM BR OVC025=



000
FTUS46 KEKA 192327 CCA
TAFACV
TAF COR
KACV 192327Z 2000/2024 14008KT 4SM -RA BR OVC025
      TEMPO 2000/2004 3SM -RA BR BKN005 BKN010 OVC020
     FM200400 14004KT P6SM OVC050
     FM201200 14008KT P6SM OVC050=



000
FTUS46 KEKA 192326 CCA
TAFUKI
TAF COR
KUKI 192326Z 2000/2024 13004KT 4SM -RA BR BKN015 OVC020
      TEMPO 2000/2002 3SM BR BKN005 BKN010
     FM200200 00000KT 5SM -RA BR OVC030
     FM200600 00000KT P6SM BKN020
     FM201400 00000KT 5SM BR OVC025=



000
FTUS46 KEKA 192321
TAFUKI
TAF
KUKI 192321Z 2000/2024 13004KT 4SM -RA BR BKN012 OVC020
     FM200200 00000KT 5SM -RA BR OVC030
     FM200600 00000KT P6SM BKN020
     FM201400 00000KT 5SM BR OVC025=



000
FTUS46 KEKA 192321
TAFCEC
TAF
KCEC 192321Z 2000/2024 17015G20KT P6SM -RA BKN025 OVC030
     FM200100 16008KT P6SM -SHRA OVC030
     FM200400 16008KT 5SM BR OVC030
     FM201200 16010KT P6SM OVC050=



000
FTUS46 KEKA 192321
TAFACV
TAF
KACV 192321Z 2000/2024 14008KT 4SM -RA BR OVC030
      TEMPO 2000/2004 3SM -RA BR BKN015 OVC025
     FM200400 14004KT P6SM OVC050
     FM201200 14008KT P6SM OVC050=



000
FTUS46 KEKA 192203 AAB
TAFCEC
TAF AMD
KCEC 192203Z 1922/2018 17015KT P6SM -RA BKN025 OVC030
     FM200100 15006KT P6SM -SHRA OVC035
     FM201200 16008KT P6SM OVC050=



000
FTUS46 KEKA 192201 AAC
TAFACV
TAF AMD
KACV 192201Z 1922/2018 14008KT 6SM -RA BR OVC035
      TEMPO 1922/1924 3SM BR BKN020 OVC025
     FM200400 13003KT P6SM -SHRA OVC035
     FM201200 14005KT P6SM OVC050=



000
FTUS46 KEKA 192026 CCA
TAFUKI
TAF COR
KUKI 192026Z 1918/2018 VRB03KT 4SM -RA BR SCT015 BKN020 OVC025
     FM192300 00000KT 5SM -RA BR OVC035
     FM200200 00000KT P6SM BKN060=



000
FTUS46 KEKA 192009 AAB
TAFACV
TAF AMD
KACV 192009Z 1920/2018 13006KT P6SM -RA BKN040 OVC050
      TEMPO 1920/1922 4SM BR BKN030
     FM192200 14008KT 6SM -RA BR OVC035
     FM200400 13003KT P6SM -SHRA OVC035
     FM201200 14005KT P6SM OVC050=



000
FTUS46 KEKA 192003 AAA
TAFACV
TAF AMD
KACV 192003Z 1920/2018 13006KT 4SM -RA BR BKN040 OVC050
     FM192200 14008KT 6SM -RA BR OVC035
     FM200400 13003KT P6SM -SHRA OVC035
     FM201200 14005KT P6SM OVC050=



000
FTUS46 KEKA 192002 AAA
TAFCEC
TAF AMD
KCEC 192002Z 1920/2018 15008KT 4SM -RA BR BKN040 OVC050
     FM192200 17015KT 6SM -RA OVC050
     FM200100 15006KT P6SM -SHRA OVC035
     FM201200 16008KT P6SM OVC050=



000
FTUS46 KEKA 191721
TAFCEC
TAF
KCEC 191721Z 1918/2018 15008KT P6SM -SHRA BKN035 OVC050
     FM192200 17015KT 6SM -RA OVC035
     FM200100 15006KT P6SM -SHRA OVC035
     FM201200 16008KT P6SM OVC050=



000
FTUS46 KEKA 191721
TAFACV
TAF
KACV 191721Z 1918/2018 13006KT 5SM -RA BKN050 OVC060
     FM192200 14008KT 6SM -RA OVC035
     FM200400 13003KT P6SM -SHRA OVC035
     FM201200 14005KT P6SM OVC050=



000
FTUS46 KEKA 191721
TAFUKI
TAF
KUKI 191721Z 1918/2018 VRB03KT 4SM -RA BR BKN015 BKN020 OVC025
     FM192300 00000KT 5SM -RA BR OVC035
     FM200200 00000KT P6SM BKN060=



000
FTUS46 KEKA 191706 CCA
TAFACV
TAF COR
KACV 191706Z 1917/2012 13006KT 5SM -RA BKN050 OVC060
     FM192200 17015KT 6SM -RA OVC020
     FM200600 15003KT P6SM -SHRA BKN030=



000
FTUS46 KEKA 191705 AAA
TAFACV
TAF AMD
KACV 191705Z 1917/2012 13006KT P6SM -RA BKN050 OVC060
     FM192200 17015KT 6SM -RA OVC020
     FM200600 15003KT P6SM -SHRA BKN030=



000
FTUS46 KEKA 191702 AAB
TAFUKI
TAF AMD
KUKI 191702Z 1917/2012 VRB03KT 4SM -RA BR BKN020 OVC025
     FM200200 00000KT P6SM BKN060=



000
FTUS46 KEKA 191638 AAA
TAFUKI
TAF AMD
KUKI 191638Z 1917/2012 15003KT 4SM -SHRA BKN025 OVC030
     FM200200 00000KT P6SM BKN060=



000
FTUS46 KEKA 191120
TAFACV
TAF
KACV 191120Z 1912/2012 10009KT P6SM VCSH BKN100
     FM191600 15008KT P6SM -SHRA OVC035
     FM192200 17015KT 6SM -RA OVC020
     FM200600 15003KT P6SM -SHRA BKN030=



000
FTUS46 KEKA 191120
TAFCEC
TAF
KCEC 191120Z 1912/2012 09005KT P6SM VCSH SCT100
     FM191600 15010KT P6SM -SHRA BKN035 OVC080
     FM192200 17015KT 6SM -RA OVC020
     FM200600 15006KT P6SM -SHRA BKN030=



000
FTUS46 KEKA 191120
TAFUKI
TAF
KUKI 191120Z 1912/2012 26003KT P6SM FEW090
     FM191500 15003KT P6SM -SHRA BKN035 OVC050
     FM200200 00000KT P6SM BKN060=



000
FTUS46 KEKA 190520
TAFUKI
TAF
KUKI 190520Z 1906/2006 16005KT P6SM VCSH OVC100
     FM191200 15006KT P6SM -SHRA BKN050 OVC080
     FM191500 15003KT P6SM -SHRA BKN035 OVC050=



000
FTUS46 KEKA 190520
TAFACV
TAF
KACV 190520Z 1906/2006 12008KT P6SM SCT080 OVC120
     FM191100 12008KT P6SM VCSH BKN060 OVC100
     FM191600 15008KT P6SM -SHRA OVC035=



000
FTUS46 KEKA 190520
TAFCEC
TAF
KCEC 190520Z 1906/2006 09004KT P6SM BKN150 OVC200
     FM191000 12006KT P6SM VCSH BKN070 OVC120
     FM191600 15010KT P6SM -SHRA BKN035 OVC080=



000
FTUS46 KEKA 182320
TAFUKI
TAF
KUKI 182320Z 1900/1924 15003KT P6SM OVC150
     FM190500 15005KT P6SM SCT060 OVC100
     FM191200 15006KT P6SM -SHRA BKN050 OVC080
     FM191500 15006KT P6SM -SHRA BKN035 OVC050=



000
FTUS46 KEKA 182320
TAFACV
TAF
KACV 182320Z 1900/1924 13004KT P6SM SCT100 OVC150
     FM190500 12005KT P6SM SCT080 OVC120
     FM191100 13008KT P6SM VCSH BKN060 OVC100
     FM191600 16009KT P6SM -SHRA OVC035=



000
FTUS46 KEKA 182320
TAFCEC
TAF
KCEC 182320Z 1900/1924 09005KT P6SM BKN150 OVC200
     FM191000 14008KT P6SM VCSH BKN070 OVC120
     FM191600 15010KT P6SM -SHRA BKN035 OVC080=



    US Dept of Commerce
    National Oceanic and Atmospheric Administration
    National Weather Service
    1325 East West Highway
    Silver Spring, MD 20910
    Page Author: NWS Internet Services Team
Disclaimer
Information Quality
Credits
Glossary
Privacy Policy
Freedom of Information Act (FOIA)
About Us
Career Opportunities